EGPE/INV METAR and TAF weather

Enter ICAO airport designator
Station Type Date Time Source
EGPE METAR 2020/10/29 16:50 UTC NOAA

EGPE 291650Z 06005KT 9999 -RA FEW008 BKN039 08/07 Q0994


Station Type Date Time Source
EGPE Decoded METAR 2020/10/29 16:50 UTC NOAA

Inverness / Dalcross, United Kingdom (EGPE) 57-32N 004-03W 0M
Oct 29, 2020 - 12:50 PM EDT / 2020.10.29 1650 UTC
Wind: from the ENE (060 degrees) at 6 MPH (5 KT):0
Visibility: greater than 7 mile(s):0
Sky conditions: mostly cloudy
Weather: light rain
Temperature: 46 F (8 C)
Dew Point: 44 F (7 C)
Relative Humidity: 93%
Pressure (altimeter): 29.35 in. Hg (0994 hPa)
ob: EGPE 291650Z 06005KT 9999 -RA FEW008 BKN039 08/07 Q0994
cycle: 17

Station Type Date Time Source
EGPE TAF UTC NOAA

Error!

Example: see airport list